Time;durP1;ratioP1;P1;durP2;ratioP2;P2;SDS_P1;SDS_P2;PMS_P1;PMS_P2;Temp;Humidity;BMP_temperature;BMP_pressure;BME280_temperature;BME280_humidity;BME280_pressure;Samples;Min_cycle;Max_cycle;Signal;HPM_P1;HPM_P2
2023/03/23 00:02:35;;;;;;;26.48;14.27;;;;;;;10.06;100.00;100097.66;4990914;28;20034;-27
2023/03/23 00:05:03;;;;;;;27.00;14.30;;;;;;;10.03;100.00;100097.28;4990590;28;20041;-28
2023/03/23 00:07:28;;;;;;;23.63;13.13;;;;;;;9.91;100.00;100105.16;4990447;28;20038;-26
2023/03/23 00:09:55;;;;;;;25.20;13.23;;;;;;;10.11;100.00;100099.69;4990431;28;20081;-27
2023/03/23 00:12:32;;;;;;;24.33;13.60;;;;;;;9.92;100.00;100106.75;4972713;28;20048;-27
2023/03/23 00:15:03;;;;;;;26.83;14.30;;;;;;;9.93;100.00;100102.25;4990265;28;20506;-27
2023/03/23 00:17:29;;;;;;;24.98;15.63;;;;;;;9.73;100.00;100102.38;4990101;28;20898;-27
2023/03/23 00:19:55;;;;;;;25.40;14.18;;;;;;;9.85;100.00;100090.03;4990252;28;20026;-27
2023/03/23 00:22:21;;;;;;;23.85;13.73;;;;;;;9.81;100.00;100086.97;4990198;28;20681;-27
2023/03/23 00:24:50;;;;;;;21.92;14.18;;;;;;;9.92;100.00;100088.13;4990143;28;20493;-28
2023/03/23 00:27:16;;;;;;;24.85;13.65;;;;;;;10.01;100.00;100084.19;4989569;28;20030;-28
2023/03/23 00:29:44;;;;;;;20.92;12.45;;;;;;;9.87;100.00;100085.28;4990290;28;20624;-26
2023/03/23 00:32:12;;;;;;;21.85;12.82;;;;;;;9.79;100.00;100086.34;4989839;28;20035;-27
2023/03/23 00:34:40;;;;;;;21.38;12.45;;;;;;;9.86;100.00;100086.31;4989888;28;20112;-27
2023/03/23 00:37:06;;;;;;;21.97;11.93;;;;;;;9.77;100.00;100095.59;4989734;28;20038;-27
2023/03/23 00:39:31;;;;;;;23.30;12.90;;;;;;;9.67;100.00;100092.56;4989970;28;20433;-26
2023/03/23 00:42:00;;;;;;;21.88;12.32;;;;;;;9.73;100.00;100097.03;4989951;28;20520;-28
2023/03/23 00:44:28;;;;;;;20.85;11.10;;;;;;;9.80;100.00;100100.47;4989804;28;20030;-27
2023/03/23 00:46:56;;;;;;;22.35;11.07;;;;;;;9.62;100.00;100087.84;4989916;28;20038;-27
2023/03/23 00:49:26;;;;;;;19.92;10.90;;;;;;;9.52;100.00;100080.34;4989895;28;20046;-28
2023/03/23 00:51:53;;;;;;;20.58;11.07;;;;;;;9.74;100.00;100077.34;4989670;28;20073;-27
2023/03/23 00:54:19;;;;;;;21.43;12.43;;;;;;;9.62;100.00;100087.84;4989340;28;20031;-28
2023/03/23 00:56:45;;;;;;;19.65;10.93;;;;;;;9.74;100.00;100090.69;4989668;28;20034;-28
2023/03/23 00:59:10;;;;;;;25.52;12.65;;;;;;;9.73;100.00;100081.88;4989294;28;20042;-27
2023/03/23 01:01:36;;;;;;;21.60;13.18;;;;;;;9.79;100.00;100080.22;4989482;28;20484;-27
2023/03/23 01:04:03;;;;;;;23.92;13.65;;;;;;;9.70;100.00;100066.31;4989724;28;20168;-28
2023/03/23 01:06:35;;;;;;;21.92;12.88;;;;;;;9.83;100.00;100065.44;4989753;28;20018;-27
2023/03/23 01:09:02;;;;;;;24.40;13.23;;;;;;;9.92;100.00;100080.13;4989337;28;20034;-27
2023/03/23 01:11:28;;;;;;;23.58;12.90;;;;;;;9.71;100.00;100075.13;4989498;28;20038;-34
2023/03/23 01:13:53;;;;;;;23.27;13.15;;;;;;;9.50;100.00;100066.44;4989254;28;20454;-28
2023/03/23 01:16:18;;;;;;;21.42;12.85;;;;;;;9.78;100.00;100067.91;4989306;28;20425;-27
2023/03/23 01:18:44;;;;;;;23.13;12.68;;;;;;;9.90;100.00;100066.22;4989237;28;20419;-27
2023/03/23 01:21:15;;;;;;;24.48;12.70;;;;;;;10.16;100.00;100064.41;4989017;28;20034;-28
2023/03/23 01:23:41;;;;;;;24.42;12.85;;;;;;;10.12;100.00;100065.88;4972177;28;20022;-27
2023/03/23 01:26:09;;;;;;;27.50;14.27;;;;;;;9.88;100.00;100068.25;4989218;28;20045;-27
2023/03/23 01:28:35;;;;;;;22.45;12.43;;;;;;;9.96;100.00;100070.69;4989180;28;20540;-28
2023/03/23 01:31:04;;;;;;;23.02;11.82;;;;;;;9.76;100.00;100072.63;4988840;28;20510;-28
2023/03/23 01:33:30;;;;;;;21.42;11.23;;;;;;;9.75;100.00;100063.03;4988788;28;20433;-28
2023/03/23 01:35:56;;;;;;;20.95;12.15;;;;;;;9.76;100.00;100056.66;4988936;28;20026;-27
2023/03/23 01:38:22;;;;;;;19.73;11.05;;;;;;;9.95;100.00;100061.06;4988931;28;20398;-27
2023/03/23 01:40:47;;;;;;;20.48;10.77;;;;;;;9.67;100.00;100047.31;4988873;28;20033;-27
2023/03/23 01:43:15;;;;;;;19.65;11.05;;;;;;;9.71;100.00;100041.34;4988682;28;20112;-27
2023/03/23 01:45:40;;;;;;;19.10;10.60;;;;;;;9.88;100.00;100054.94;4988797;28;20030;-27
2023/03/23 01:48:16;;;;;;;19.58;10.15;;;;;;;9.81;100.00;100040.88;4988355;28;20040;-27
2023/03/23 01:51:11;;;;;;;21.80;11.48;;;;;;;9.77;100.00;100050.31;4988901;28;20027;-28
2023/03/23 01:53:42;;;;;;;19.50;10.10;;;;;;;9.64;100.00;100057.34;4988657;28;20516;-27
2023/03/23 01:56:11;;;;;;;21.30;11.18;;;;;;;9.71;100.00;100056.50;4987894;28;20088;-28
2023/03/23 01:58:38;;;;;;;21.10;11.10;;;;;;;9.73;100.00;100052.59;4987963;28;20046;-27
2023/03/23 02:01:13;;;;;;;18.48;10.88;;;;;;;9.71;100.00;100044.00;4988188;28;20470;-27
2023/03/23 02:03:44;;;;;;;21.40;10.57;;;;;;;10.08;100.00;100056.69;4988548;28;20032;-28
2023/03/23 02:06:10;;;;;;;21.00;11.48;;;;;;;10.30;100.00;100062.47;4987979;28;20026;-27
2023/03/23 02:08:38;;;;;;;23.13;12.30;;;;;;;10.25;100.00;100073.75;4988249;28;20022;-28
2023/03/23 02:11:33;;;;;;;23.20;12.30;;;;;;;10.19;100.00;100080.75;4988183;28;20028;-27
2023/03/23 02:14:00;;;;;;;20.65;12.00;;;;;;;10.17;100.00;100084.69;4975306;28;20296;-28
2023/03/23 02:16:51;;;;;;;23.33;12.32;;;;;;;10.01;100.00;100089.50;4988178;28;20157;-28
2023/03/23 02:19:34;;;;;;;18.95;11.00;;;;;;;9.84;100.00;100088.38;4987893;28;20473;-28
2023/03/23 02:22:02;;;;;;;19.83;11.07;;;;;;;9.79;100.00;100101.53;4988180;28;20026;-28
2023/03/23 02:24:40;;;;;;;;;;;;;;;9.93;100.00;100103.09;4988469;28;20060;-28
2023/03/23 02:27:11;;;;;;;20.48;11.25;;;;;;;9.95;100.00;100085.03;4988201;28;19944;-28
2023/03/23 02:29:45;;;;;;;21.52;11.40;;;;;;;10.02;100.00;100099.13;4987914;28;20046;-28
2023/03/23 02:32:40;;;;;;;19.35;10.95;;;;;;;10.17;100.00;100092.69;4987846;28;20116;-28
2023/03/23 02:35:35;;;;;;;20.00;10.80;;;;;;;9.94;100.00;100098.56;4987274;28;20065;-28
2023/03/23 02:38:07;;;;;;;22.65;11.95;;;;;;;9.76;100.00;100092.09;4987692;28;20501;-28
2023/03/23 02:40:39;;;;;;;21.55;11.45;;;;;;;10.08;100.00;100101.97;4987805;28;20026;-28
2023/03/23 02:43:08;;;;;;;20.20;11.88;;;;;;;10.09;100.00;100101.75;4987628;28;20042;-28
2023/03/23 02:45:35;;;;;;;21.98;12.80;;;;;;;10.16;100.00;100101.72;4987409;28;20081;-28
2023/03/23 02:48:03;;;;;;;21.30;12.32;;;;;;;10.17;100.00;100087.34;4987676;28;20785;-28
2023/03/23 02:50:30;;;;;;;;;;;;;;;10.22;100.00;100107.00;4987898;28;20066;-28
2023/03/23 02:52:58;;;;;;;22.15;12.13;;;;;;;9.81;100.00;100075.50;4987355;28;19918;-28
2023/03/23 02:55:24;;;;;;;;;;;;;;;9.86;100.00;100107.63;4987784;28;20058;-28
2023/03/23 02:57:52;;;;;;;20.38;11.80;;;;;;;9.71;100.00;100089.25;4987548;28;19918;-28
2023/03/23 03:00:18;;;;;;;25.27;12.50;;;;;;;9.97;100.00;100109.63;4987151;28;20054;-28
2023/03/23 03:02:55;;;;;;;20.17;11.75;;;;;;;9.99;100.00;100101.41;4987241;28;20093;-28
2023/03/23 03:05:36;;;;;;;23.13;12.30;;;;;;;10.24;100.00;100110.25;4987193;28;20108;-28
2023/03/23 03:08:26;;;;;;;22.20;11.73;;;;;;;10.17;100.00;100120.13;4986318;28;20042;-28
2023/03/23 03:11:12;;;;;;;24.52;13.18;;;;;;;10.30;100.00;100108.63;4987007;28;20418;-28
2023/03/23 03:13:59;;;;;;;23.27;12.32;;;;;;;10.11;100.00;100096.19;4986850;28;20062;-28
2023/03/23 03:16:35;;;;;;;22.73;11.80;;;;;;;9.84;100.00;100091.84;4987257;28;20030;-28
2023/03/23 03:19:06;;;;;;;25.73;13.15;;;;;;;9.91;100.00;100099.81;4987099;28;20517;-28
2023/03/23 03:21:37;;;;;;;27.25;13.93;;;;;;;9.87;100.00;100095.94;4987008;28;20530;-28
2023/03/23 03:24:07;;;;;;;20.33;11.63;;;;;;;9.86;100.00;100113.75;4986887;28;20018;-28
2023/03/23 03:26:34;;;;;;;21.80;11.98;;;;;;;9.92;100.00;100117.41;4987029;28;20546;-28
2023/03/23 03:29:00;;;;;;;26.80;13.00;;;;;;;10.01;100.00;100113.50;4986911;28;20053;-28
2023/03/23 03:31:30;;;;;;;20.80;11.23;;;;;;;10.03;100.00;100114.09;4987045;28;20034;-28
2023/03/23 03:33:56;;;;;;;21.95;12.85;;;;;;;9.93;100.00;100121.72;4986629;28;20537;-28
2023/03/23 03:36:26;;;;;;;23.95;13.00;;;;;;;9.88;100.00;100107.41;4986779;28;20113;-28
2023/03/23 03:38:53;;;;;;;21.55;11.57;;;;;;;9.95;100.00;100127.66;4969558;28;20415;-28
2023/03/23 03:41:19;;;;;;;22.52;12.02;;;;;;;9.73;100.00;100123.69;4987237;28;20109;-28
2023/03/23 03:43:45;;;;;;;24.85;12.23;;;;;;;9.80;100.00;100125.25;4986741;28;20039;-28
2023/03/23 03:46:11;;;;;;;24.20;13.13;;;;;;;9.97;100.00;100130.94;4986788;28;20081;-28
2023/03/23 03:48:36;;;;;;;23.38;13.80;;;;;;;10.02;100.00;100125.78;4986837;28;20027;-28
2023/03/23 03:51:02;;;;;;;30.98;14.00;;;;;;;10.05;100.00;100129.84;4986658;28;20356;-28
2023/03/23 03:53:28;;;;;;;30.20;15.45;;;;;;;10.00;100.00;100130.50;4986926;28;20536;-28
2023/03/23 03:55:59;;;;;;;26.73;13.00;;;;;;;9.92;100.00;100125.41;4986991;28;20050;-28
2023/03/23 03:58:31;;;;;;;26.13;13.75;;;;;;;9.91;100.00;100136.28;4987140;28;20034;-28
2023/03/23 04:00:58;;;;;;;25.33;13.20;;;;;;;9.77;100.00;100124.88;4986748;28;20409;-28
2023/03/23 04:03:23;;;;;;;27.83;14.13;;;;;;;9.83;100.00;100129.38;4986710;28;20117;-28
2023/03/23 04:05:49;;;;;;;27.85;15.15;;;;;;;9.70;100.00;100130.22;4986585;28;20121;-28
2023/03/23 04:08:14;;;;;;;24.25;14.60;;;;;;;9.86;100.00;100123.59;4986461;28;20050;-28
2023/03/23 04:10:40;;;;;;;28.50;14.82;;;;;;;9.95;100.00;100130.34;4986729;28;20061;-28
2023/03/23 04:13:06;;;;;;;22.08;12.57;;;;;;;9.73;100.00;100126.34;4986734;28;20031;-28
2023/03/23 04:15:31;;;;;;;22.17;12.15;;;;;;;9.77;100.00;100125.69;4969245;28;20438;-28
2023/03/23 04:17:57;;;;;;;23.73;11.93;;;;;;;9.74;100.00;100131.44;4986286;28;20109;-28
2023/03/23 04:20:24;;;;;;;21.27;12.23;;;;;;;9.77;100.00;100120.38;4988807;28;20157;-28
2023/03/23 04:22:51;;;;;;;21.42;12.30;;;;;;;9.85;100.00;100132.63;4990126;28;20044;-28
2023/03/23 04:25:20;;;;;;;21.88;12.30;;;;;;;9.78;100.00;100131.84;4990323;28;20038;-28
2023/03/23 04:27:52;;;;;;;22.55;12.57;;;;;;;9.83;100.00;100134.69;4990202;28;20018;-28
2023/03/23 04:30:23;;;;;;;23.42;14.43;;;;;;;9.93;100.00;100129.72;4990208;28;20037;-28
2023/03/23 04:32:50;;;;;;;25.20;13.77;;;;;;;9.79;100.00;100128.16;4990133;28;20022;-28
2023/03/23 04:35:17;;;;;;;22.85;13.00;;;;;;;9.77;100.00;100124.88;4989947;28;20030;-28
2023/03/23 04:37:42;;;;;;;22.98;12.85;;;;;;;9.80;100.00;100130.59;4989966;28;20018;-28
2023/03/23 04:40:11;;;;;;;24.98;14.02;;;;;;;9.80;100.00;100125.25;4989942;28;20030;-28
2023/03/23 04:42:38;;;;;;;29.85;17.08;;;;;;;9.95;100.00;100141.00;4989808;28;20521;-28
2023/03/23 04:45:07;;;;;;;32.35;19.90;;;;;;;9.79;100.00;100113.00;4989646;28;20118;-28
2023/03/23 04:47:39;;;;;;;30.10;20.10;;;;;;;9.83;100.00;100118.72;4989915;28;20030;-30
2023/03/23 04:50:08;;;;;;;26.38;15.98;;;;;;;9.93;100.00;100148.38;4972271;28;20425;-28
2023/03/23 04:52:33;;;;;;;30.50;17.52;;;;;;;9.89;100.00;100143.66;4989661;28;20037;-28
2023/03/23 04:54:59;;;;;;;24.38;16.23;;;;;;;10.05;100.00;100149.34;4989311;28;20026;-28
2023/03/23 04:57:27;;;;;;;28.58;16.88;;;;;;;10.02;100.00;100148.94;4989790;28;20109;-28
2023/03/23 04:59:53;;;;;;;27.50;15.05;;;;;;;9.84;100.00;100146.97;4989272;28;20097;-28
2023/03/23 05:02:18;;;;;;;25.55;15.00;;;;;;;9.96;100.00;100150.59;4989444;28;20436;-28
2023/03/23 05:04:44;;;;;;;24.00;15.35;;;;;;;10.03;100.00;100164.72;4989114;28;20568;-28
2023/03/23 05:07:11;;;;;;;26.80;16.30;;;;;;;10.19;100.00;100149.25;4989346;28;20037;-28
2023/03/23 05:09:36;;;;;;;25.08;15.93;;;;;;;10.13;100.00;100160.75;4989126;28;20038;-28
2023/03/23 05:12:09;;;;;;;26.27;16.35;;;;;;;10.29;100.00;100164.78;4989528;28;20073;-28
2023/03/23 05:14:36;;;;;;;25.65;15.35;;;;;;;10.25;100.00;100175.03;4989233;28;20032;-28
2023/03/23 05:17:01;;;;;;;27.65;14.85;;;;;;;10.11;100.00;100173.47;4989448;28;20025;-28
2023/03/23 05:19:27;;;;;;;27.38;15.48;;;;;;;10.27;100.00;100184.44;4989338;28;20026;-28
2023/03/23 05:21:56;;;;;;;27.70;15.85;;;;;;;10.17;100.00;100180.63;4989103;28;20112;-28
2023/03/23 05:24:21;;;;;;;27.13;16.15;;;;;;;10.31;100.00;100179.53;4989071;28;20049;-27
2023/03/23 05:26:48;;;;;;;26.83;15.90;;;;;;;10.48;100.00;100187.84;4988650;28;20097;-28
2023/03/23 05:29:14;;;;;;;27.08;16.33;;;;;;;10.52;100.00;100185.56;4989234;28;20092;-29
2023/03/23 05:31:39;;;;;;;25.88;16.90;;;;;;;10.38;100.00;100198.16;4988135;28;20023;-28
2023/03/23 05:34:05;;;;;;;27.70;17.73;;;;;;;10.60;100.00;100195.97;4988747;28;20034;-28
2023/03/23 05:36:31;;;;;;;30.85;22.38;;;;;;;10.57;100.00;100189.22;4988605;28;20034;-28
2023/03/23 05:38:56;;;;;;;28.60;17.80;;;;;;;10.57;100.00;100193.75;4989082;28;20026;-28
2023/03/23 05:41:22;;;;;;;25.15;16.30;;;;;;;10.48;100.00;100193.19;4989089;28;20026;-28
2023/03/23 05:43:48;;;;;;;27.88;17.75;;;;;;;10.47;100.00;100193.41;4988743;28;20116;-28
2023/03/23 05:46:14;;;;;;;32.72;20.13;;;;;;;10.52;100.00;100198.91;4988593;28;20160;-28
2023/03/23 05:48:40;;;;;;;33.20;18.13;;;;;;;10.63;100.00;100200.91;4988464;28;20088;-28
2023/03/23 05:51:05;;;;;;;36.97;22.10;;;;;;;10.63;100.00;100200.91;4988690;28;20077;-28
2023/03/23 05:53:31;;;;;;;33.70;19.08;;;;;;;10.53;100.00;100203.22;4988472;28;20022;-28
2023/03/23 05:56:00;;;;;;;30.80;17.08;;;;;;;10.52;100.00;100217.56;4988533;28;20437;-28
2023/03/23 05:58:26;;;;;;;32.75;17.02;;;;;;;10.19;100.00;100213.22;4988200;28;20030;-28
2023/03/23 06:00:51;;;;;;;31.75;18.80;;;;;;;9.98;100.00;100206.34;4988499;28;20085;-28
2023/03/23 06:03:17;;;;;;;33.20;19.80;;;;;;;10.25;100.00;100217.69;4988482;28;20031;-28
2023/03/23 06:05:45;;;;;;;29.65;18.20;;;;;;;10.34;100.00;100218.28;4988487;28;20433;-27
2023/03/23 06:08:11;;;;;;;;;;;;;;;9.95;100.00;100214.75;4988796;28;20061;-28
2023/03/23 06:10:36;;;;;;;36.13;19.55;;;;;;;10.05;100.00;100207.94;4988259;28;19914;-28
2023/03/23 06:13:03;;;;;;;34.92;20.63;;;;;;;10.31;100.00;100216.88;4987994;28;20688;-28
2023/03/23 06:15:31;;;;;;;39.85;22.38;;;;;;;10.06;100.00;100204.25;4988005;28;20076;-28
2023/03/23 06:18:00;;;;;;;57.75;24.23;;;;;;;10.12;100.00;100215.09;4987945;28;20089;-28
2023/03/23 06:20:26;;;;;;;57.00;25.67;;;;;;;9.78;100.00;100204.56;4988258;28;20033;-28
2023/03/23 06:22:52;;;;;;;45.30;22.20;;;;;;;9.93;100.00;100209.66;4988208;28;20381;-28
2023/03/23 06:25:18;;;;;;;52.90;26.13;;;;;;;10.15;100.00;100215.47;4987958;28;20097;-29
2023/03/23 06:27:45;;;;;;;63.35;29.75;;;;;;;10.31;100.00;100208.88;4987695;28;20453;-28
2023/03/23 06:30:12;;;;;;;60.03;30.67;;;;;;;10.45;100.00;100223.75;4988151;28;20042;-28
2023/03/23 06:32:38;;;;;;;60.45;27.15;;;;;;;10.50;100.00;100227.63;4987539;28;20038;-28
2023/03/23 06:35:04;;;;;;;61.20;27.25;;;;;;;10.57;100.00;100225.75;4970292;28;20030;-28
2023/03/23 06:37:30;;;;;;;59.03;25.63;;;;;;;10.38;100.00;100225.66;4987561;28;20133;-28
2023/03/23 06:39:55;;;;;;;64.30;28.52;;;;;;;10.68;100.00;100227.72;4987683;28;20034;-28
2023/03/23 06:42:24;;;;;;;74.97;29.67;;;;;;;10.54;100.00;100235.00;4987231;28;20084;-28
2023/03/23 06:44:50;;;;;;;76.05;27.05;;;;;;;10.71;100.00;100227.31;4987607;28;20027;-28
2023/03/23 06:47:16;;;;;;;73.38;30.75;;;;;;;10.56;100.00;100240.94;4987445;28;20030;-28
2023/03/23 06:49:41;;;;;;;73.57;26.35;;;;;;;10.77;100.00;100239.78;4987597;28;20049;-28
2023/03/23 06:52:06;;;;;;;68.45;27.98;;;;;;;10.90;100.00;100238.06;4987402;28;20409;-28
2023/03/23 06:54:32;;;;;;;67.82;26.95;;;;;;;10.96;100.00;100230.00;4987229;28;20026;-28
2023/03/23 06:56:57;;;;;;;88.00;39.65;;;;;;;11.03;100.00;100235.25;4987431;28;20038;-28
2023/03/23 06:59:23;;;;;;;70.60;26.85;;;;;;;11.08;100.00;100229.28;4987075;28;20121;-28
2023/03/23 07:01:48;;;;;;;63.28;27.30;;;;;;;11.23;100.00;100240.44;4987513;28;20109;-26
2023/03/23 07:04:14;;;;;;;67.50;27.25;;;;;;;11.16;100.00;100243.19;4987132;28;20113;-28
2023/03/23 07:06:40;;;;;;;65.85;25.38;;;;;;;11.22;100.00;100239.63;4987275;28;20137;-28
2023/03/23 07:09:05;;;;;;;59.40;23.80;;;;;;;11.21;100.00;100237.97;4986904;28;20030;-28
2023/03/23 07:11:32;;;;;;;59.67;24.48;;;;;;;11.42;100.00;100242.13;4987402;28;20407;-28
2023/03/23 07:13:57;;;;;;;59.40;23.02;;;;;;;11.40;100.00;100236.19;4987036;28;20033;-28
2023/03/23 07:16:23;;;;;;;57.67;23.38;;;;;;;11.53;100.00;100245.91;4986958;28;20026;-28
2023/03/23 07:18:48;;;;;;;45.35;22.27;;;;;;;11.37;100.00;100235.81;4987205;28;20038;-28
2023/03/23 07:21:13;;;;;;;56.10;25.02;;;;;;;11.58;100.00;100239.91;4987099;28;20030;-28
2023/03/23 07:23:39;;;;;;;52.58;22.23;;;;;;;11.77;100.00;100252.25;4986991;28;20532;-28
2023/03/23 07:26:06;;;;;;;56.72;22.92;;;;;;;11.76;100.00;100249.81;4986955;28;20559;-28
2023/03/23 07:28:32;;;;;;;55.63;22.23;;;;;;;11.77;100.00;100256.75;4986894;28;20031;-27
2023/03/23 07:30:57;;;;;;;55.20;22.30;;;;;;;11.84;100.00;100252.19;4986808;28;20030;-28
2023/03/23 07:33:23;;;;;;;47.00;23.15;;;;;;;11.98;100.00;100259.03;4987230;28;20495;-28
2023/03/23 07:35:48;;;;;;;54.85;25.60;;;;;;;12.34;100.00;100257.38;4969196;28;20034;-28
2023/03/23 07:38:14;;;;;;;74.18;34.47;;;;;;;12.29;100.00;100270.59;4986671;28;20497;-28
2023/03/23 07:40:40;;;;;;;61.30;26.73;;;;;;;12.21;100.00;100261.00;4986747;28;20034;-28
2023/03/23 07:43:06;;;;;;;56.85;26.33;;;;;;;12.37;100.00;100261.44;4986828;28;20034;-28
2023/03/23 07:45:32;;;;;;;44.42;23.00;;;;;;;12.51;100.00;100270.94;4987040;28;20033;-28
2023/03/23 07:47:58;;;;;;;39.35;19.90;;;;;;;12.55;100.00;100272.13;4986446;28;20023;-28
2023/03/23 07:50:25;;;;;;;43.88;21.60;;;;;;;12.60;100.00;100266.06;4986431;28;20061;-28
2023/03/23 07:52:54;;;;;;;45.45;20.52;;;;;;;12.53;100.00;100265.38;4986603;28;20026;-28
2023/03/23 07:55:21;;;;;;;40.25;20.48;;;;;;;12.37;100.00;100264.13;4988717;28;20536;-28
2023/03/23 07:57:48;;;;;;;38.35;20.55;;;;;;;12.55;100.00;100258.72;4990649;28;20026;-28
2023/03/23 08:00:18;;;;;;;33.67;20.30;;;;;;;12.88;100.00;100264.66;4990437;28;20077;-27
2023/03/23 08:02:43;;;;;;;34.60;20.27;;;;;;;13.13;99.35;100269.81;4990271;28;20038;-28
2023/03/23 08:05:10;;;;;;;34.88;20.05;;;;;;;13.05;97.79;100268.28;4990051;28;20516;-28
2023/03/23 08:07:35;;;;;;;33.88;18.55;;;;;;;13.00;98.43;100276.22;4990101;28;20517;-28
2023/03/23 08:10:02;;;;;;;31.75;18.40;;;;;;;13.08;96.37;100275.88;4989703;28;20058;-28
2023/03/23 08:12:28;;;;;;;39.88;20.30;;;;;;;13.03;99.00;100275.75;4990332;28;20514;-28
2023/03/23 08:14:53;;;;;;;37.83;19.88;;;;;;;13.05;100.00;100282.47;4989808;28;20034;-28
2023/03/23 08:17:19;;;;;;;39.80;18.70;;;;;;;13.15;100.00;100281.94;4990149;28;20498;-28
2023/03/23 08:19:45;;;;;;;38.85;20.45;;;;;;;13.19;100.00;100279.63;4990154;28;20026;-28
2023/03/23 08:22:11;;;;;;;39.75;19.48;;;;;;;12.81;100.00;100270.94;4990334;28;20417;-28
2023/03/23 08:24:36;;;;;;;36.10;17.85;;;;;;;12.83;100.00;100282.22;4990143;28;20069;-28
2023/03/23 08:27:02;;;;;;;31.33;16.80;;;;;;;12.89;98.95;100283.16;4990063;28;20093;-28
2023/03/23 08:29:28;;;;;;;30.63;16.17;;;;;;;12.87;96.90;100282.56;4990075;28;20419;-28
2023/03/23 08:31:54;;;;;;;33.67;18.05;;;;;;;13.01;98.78;100281.31;4990095;28;20421;-28
2023/03/23 08:34:20;;;;;;;31.17;17.10;;;;;;;12.78;98.61;100282.06;4990163;28;20780;-28
2023/03/23 08:36:46;;;;;;;29.80;16.63;;;;;;;13.15;97.90;100279.25;4988666;28;20030;-28
2023/03/23 08:39:14;;;;;;;30.70;17.40;;;;;;;13.25;97.61;100279.50;4989093;28;20092;-28
2023/03/23 08:41:40;;;;;;;27.77;16.65;;;;;;;13.37;97.09;100276.06;4989356;28;20080;-28
2023/03/23 08:44:05;;;;;;;32.80;18.33;;;;;;;13.29;95.02;100284.41;4989705;28;20034;-27
2023/03/23 08:46:31;;;;;;;31.52;16.83;;;;;;;13.22;94.41;100274.63;4989435;28;20068;-27
2023/03/23 08:48:56;;;;;;;29.92;16.27;;;;;;;13.41;94.30;100272.69;4981177;28;20054;-28
2023/03/23 08:51:22;;;;;;;32.50;18.17;;;;;;;13.74;95.31;100291.91;4982118;28;20042;-28
2023/03/23 08:53:47;;;;;;;32.45;17.95;;;;;;;13.83;92.94;100285.13;4980837;28;20030;-28
2023/03/23 08:56:13;;;;;;;30.65;17.95;;;;;;;13.90;93.24;100280.47;4977172;28;20132;-28
2023/03/23 08:58:39;;;;;;;32.58;18.50;;;;;;;13.88;96.60;100277.19;4981402;28;20046;-28
2023/03/23 09:01:07;;;;;;;32.08;17.55;;;;;;;14.06;94.69;100279.72;4981683;28;20034;-28
2023/03/23 09:03:34;;;;;;;32.72;18.17;;;;;;;14.33;93.09;100284.56;4977652;28;20033;-28
2023/03/23 09:06:01;;;;;;;36.78;19.48;;;;;;;14.58;88.74;100286.13;4982083;28;20027;-28
2023/03/23 09:08:28;;;;;;;28.30;16.15;;;;;;;14.54;89.08;100284.94;4981727;28;20030;-28
2023/03/23 09:11:04;;;;;;;31.77;18.17;;;;;;;14.52;91.87;100279.00;4979529;28;20074;-28
2023/03/23 09:13:30;;;;;;;29.23;16.00;;;;;;;15.04;87.18;100286.97;4980522;28;20030;-28
2023/03/23 09:15:57;;;;;;;29.75;17.02;;;;;;;15.51;84.17;100275.03;4981784;28;20026;-28
2023/03/23 09:18:23;;;;;;;28.95;16.80;;;;;;;15.78;88.32;100275.22;4978864;28;20470;-28
2023/03/23 09:20:54;;;;;;;27.13;15.63;;;;;;;15.98;88.94;100283.56;4980095;28;20117;-28
2023/03/23 09:23:20;;;;;;;26.75;14.35;;;;;;;15.94;85.69;100277.03;4980073;28;20031;-28
2023/03/23 09:25:46;;;;;;;19.98;12.27;;;;;;;16.61;77.79;100275.94;4970628;28;20022;-28
2023/03/23 09:28:12;;;;;;;23.73;15.02;;;;;;;16.50;83.55;100273.38;4973857;28;20031;-28
2023/03/23 09:30:40;;;;;;;24.50;15.07;;;;;;;16.60;78.46;100276.19;4976205;28;20058;-28
2023/03/23 09:33:07;;;;;;;16.48;10.23;;;;;;;16.63;72.95;100281.06;4971921;28;20027;-28
2023/03/23 09:35:35;;;;;;;15.07;9.67;;;;;;;16.32;72.63;100277.22;4980630;28;20038;-28
2023/03/23 09:38:01;;;;;;;9.77;5.77;;;;;;;16.43;67.72;100274.41;4970239;28;20301;-28
2023/03/23 09:40:43;;;;;;;7.32;4.13;;;;;;;16.61;65.20;100258.94;4977154;28;20034;-28
2023/03/23 09:43:11;;;;;;;7.47;4.95;;;;;;;17.36;68.84;100276.06;4988915;28;20097;-28
2023/03/23 09:46:05;;;;;;;14.50;9.15;;;;;;;17.46;69.35;100267.25;4981684;28;20761;-28
2023/03/23 09:48:31;;;;;;;12.60;8.00;;;;;;;17.89;68.72;100267.25;4974708;28;20027;-28
2023/03/23 09:51:14;;;;;;;13.70;9.52;;;;;;;17.67;70.20;100260.91;4978110;28;20066;-28
2023/03/23 09:53:44;;;;;;;13.55;7.65;;;;;;;17.26;68.25;100262.50;4975126;28;20089;-28
2023/03/23 09:56:14;;;;;;;10.07;6.00;;;;;;;17.39;66.57;100251.31;4980837;28;20026;-28
2023/03/23 09:58:59;;;;;;;10.82;6.82;;;;;;;17.23;72.45;100244.97;4987693;28;20535;-28
2023/03/23 10:01:36;;;;;;;10.75;6.75;;;;;;;17.38;64.83;100238.88;4985348;28;20528;-28
2023/03/23 10:04:11;;;;;;;11.60;7.40;;;;;;;17.49;68.92;100255.94;4985702;28;20037;-28
2023/03/23 10:06:37;;;;;;;11.13;6.93;;;;;;;17.20;67.98;100256.28;4979707;28;20513;-28
2023/03/23 10:09:05;;;;;;;12.07;6.90;;;;;;;17.06;68.94;100255.91;4984936;28;20015;-28
2023/03/23 10:11:33;;;;;;;10.20;7.03;;;;;;;17.09;72.40;100254.56;4977172;28;20035;-28
2023/03/23 10:14:11;;;;;;;8.30;5.55;;;;;;;16.86;68.33;100253.84;4969124;28;20418;-28
2023/03/23 10:16:41;;;;;;;10.87;6.60;;;;;;;16.63;69.20;100262.19;4968927;28;20413;-28
2023/03/23 10:19:13;;;;;;;12.55;7.03;;;;;;;16.83;70.90;100257.03;4984617;28;20414;-28
2023/03/23 10:21:44;;;;;;;14.98;8.60;;;;;;;16.50;68.68;100251.84;4979514;28;20037;-28
2023/03/23 10:24:15;;;;;;;11.93;7.07;;;;;;;15.87;72.23;100233.38;4988324;28;20026;-28
2023/03/23 10:27:10;;;;;;;8.65;4.63;;;;;;;15.89;73.36;100252.75;4981968;28;20023;-28
2023/03/23 10:30:02;;;;;;;11.43;6.00;;;;;;;15.71;73.10;100250.34;4969512;28;20023;-28
2023/03/23 10:32:40;;;;;;;10.15;6.03;;;;;;;15.55;75.40;100252.81;4975557;28;20031;-28
2023/03/23 10:35:09;;;;;;;;;;;;;;;15.44;74.06;100257.22;4969092;28;20030;-28
2023/03/23 10:37:40;;;;;;;11.82;6.95;;;;;;;15.24;76.87;100257.75;4982148;28;19925;-28
2023/03/23 10:40:15;;;;;;;12.32;6.75;;;;;;;15.08;80.06;100245.13;4973177;28;20038;-28
2023/03/23 10:42:41;;;;;;;46.90;27.13;;;;;;;14.92;80.52;100254.81;4976306;28;20034;-28
2023/03/23 10:45:26;;;;;;;122.03;70.45;;;;;;;14.77;81.48;100236.56;4976989;28;20421;-28
2023/03/23 10:48:30;;;;;;;67.32;32.83;;;;;;;14.58;86.25;100254.75;4976789;28;20054;-28
2023/03/23 10:50:59;;;;;;;30.60;15.38;;;;;;;14.30;84.38;100234.06;4970901;28;20018;-28
2023/03/23 10:53:35;;;;;;;55.10;28.63;;;;;;;14.19;86.61;100241.09;4977047;28;20035;-28
2023/03/23 10:56:01;;;;;;;40.67;24.15;;;;;;;14.10;86.55;100247.06;4970111;28;20149;-28
2023/03/23 10:58:34;;;;;;;28.58;15.65;;;;;;;13.87;85.60;100248.75;4967696;28;20043;-28
2023/03/23 11:01:01;;;;;;;20.35;11.48;;;;;;;13.92;86.58;100248.88;4976556;28;20166;-27
2023/03/23 11:03:48;;;;;;;17.13;10.43;;;;;;;13.80;88.82;100253.44;4967700;28;20030;-28
2023/03/23 11:06:24;;;;;;;14.57;8.20;;;;;;;13.84;85.96;100243.88;4967878;28;20407;-27
2023/03/23 11:08:58;;;;;;;14.45;8.93;;;;;;;13.94;85.92;100254.81;4950503;28;20101;-28
2023/03/23 11:11:37;;;;;;;15.27;7.60;;;;;;;13.80;87.92;100208.69;4967913;28;20035;-28
2023/03/23 11:14:29;;;;;;;13.70;7.93;;;;;;;14.01;86.58;100238.59;4967892;28;20061;-28
2023/03/23 11:17:00;;;;;;;13.23;7.85;;;;;;;14.04;86.79;100244.28;4967880;28;20069;-28
2023/03/23 11:19:28;;;;;;;16.63;10.00;;;;;;;14.10;85.92;100239.03;4950590;28;20034;-28